Time;durP1;ratioP1;P1;durP2;ratioP2;P2;SDS_P1;SDS_P2;PMS_P1;PMS_P2;Temp;Humidity;BMP_temperature;BMP_pressure;BME280_temperature;BME280_humidity;BME280_pressure;Samples;Min_cycle;Max_cycle;Signal;HPM_P1;HPM_P2
2022/12/30 00:01:49;;;;;;;18.55;3.22;;;5.90;99.90;;;;;;5043305;28;20476;-56
2022/12/30 00:04:15;;;;;;;22.67;2.63;;;5.90;99.90;;;;;;5042755;28;20128;-49
2022/12/30 00:06:42;;;;;;;15.40;3.10;;;5.80;99.90;;;;;;5042404;28;20041;-49
2022/12/30 00:09:09;;;;;;;19.27;3.33;;;5.80;99.90;;;;;;5040591;28;20052;-54
2022/12/30 00:11:36;;;;;;;16.60;3.03;;;5.80;99.90;;;;;;5041953;28;20045;-54
2022/12/30 00:33:29;;;;;;;14.35;2.80;;;5.70;99.90;;;;;;5039709;28;20052;-50
2022/12/30 00:35:55;;;;;;;14.60;3.00;;;5.70;99.90;;;;;;5033670;28;20409;-47
2022/12/30 00:38:22;;;;;;;15.27;2.83;;;5.70;99.90;;;;;;5047947;28;20412;-51
2022/12/30 00:43:34;;;;;;;17.73;3.15;;;5.60;99.90;;;;;;5053385;28;20041;-53
2022/12/30 00:46:01;;;;;;;16.60;3.20;;;5.60;99.90;;;;;;5048809;28;20132;-51
2022/12/30 00:56:44;;;;;;;12.30;2.42;;;5.60;99.90;;;;;;5051796;28;20107;-53
2022/12/30 00:59:11;;;;;;;16.33;3.25;;;5.60;99.90;;;;;;5038405;28;20042;-52
2022/12/30 01:01:38;;;;;;;17.80;3.15;;;5.50;99.90;;;;;;5036978;28;20092;-50
2022/12/30 01:04:05;;;;;;;18.00;4.60;;;5.50;99.90;;;;;;5038083;28;20046;-51
2022/12/30 01:06:32;;;;;;;14.65;2.55;;;5.50;99.90;;;;;;5032588;28;20073;-52
2022/12/30 01:08:58;;;;;;;21.63;3.97;;;5.60;99.90;;;;;;5040233;28;20370;-52
2022/12/30 01:11:25;;;;;;;21.92;3.40;;;5.60;99.90;;;;;;5032039;28;20550;-53
2022/12/30 01:13:52;;;;;;;17.05;3.22;;;5.60;99.90;;;;;;5033065;28;20059;-49
2022/12/30 01:16:19;;;;;;;18.33;2.55;;;5.70;99.90;;;;;;5033406;28;20117;-51
2022/12/30 01:18:45;;;;;;;22.27;3.58;;;5.70;99.90;;;;;;5032851;28;20176;-52
2022/12/30 01:21:12;;;;;;;16.25;3.17;;;5.70;99.90;;;;;;5033075;28;20041;-53
2022/12/30 01:23:39;;;;;;;16.20;2.72;;;5.70;99.90;;;;;;5036414;28;20064;-53
2022/12/30 01:26:06;;;;;;;13.90;2.60;;;5.80;99.90;;;;;;5050365;28;20048;-52
2022/12/30 01:28:32;;;;;;;20.52;3.03;;;5.80;99.90;;;;;;5052787;28;20602;-53
2022/12/30 01:30:59;;;;;;;15.75;3.33;;;5.90;99.90;;;;;;5047280;28;20046;-53
2022/12/30 01:33:26;;;;;;;15.30;2.58;;;5.90;99.90;;;;;;5040618;28;20045;-50
2022/12/30 01:35:53;;;;;;;15.25;3.15;;;5.90;99.90;;;;;;5031791;28;20084;-53
2022/12/30 01:38:19;;;;;;;19.95;3.15;;;5.90;99.90;;;;;;5048474;28;20037;-56
2022/12/30 01:40:46;;;;;;;24.88;2.90;;;6.00;99.90;;;;;;5052524;28;20061;-53
2022/12/30 01:43:13;;;;;;;16.08;2.97;;;6.00;99.90;;;;;;5052796;28;20431;-54
2022/12/30 01:45:39;;;;;;;24.40;5.22;;;6.00;99.90;;;;;;5052710;28;20091;-54
2022/12/30 01:48:06;;;;;;;15.63;2.60;;;6.00;99.90;;;;;;5048759;28;20041;-53
2022/12/30 01:50:33;;;;;;;15.93;2.50;;;6.00;99.90;;;;;;5032678;28;20040;-49
2022/12/30 01:53:00;;;;;;;20.83;3.00;;;6.10;99.90;;;;;;5032984;28;20095;-51
2022/12/30 01:55:27;;;;;;;21.15;3.40;;;6.10;99.90;;;;;;5032695;28;20432;-51
2022/12/30 01:57:54;;;;;;;20.02;2.92;;;6.10;99.90;;;;;;5032837;28;20127;-54
2022/12/30 02:00:20;;;;;;;24.88;3.33;;;6.20;99.90;;;;;;5032608;28;20052;-56
2022/12/30 02:02:47;;;;;;;27.50;3.70;;;6.20;99.90;;;;;;5032424;28;20033;-53
2022/12/30 02:05:14;;;;;;;18.77;2.80;;;6.30;99.90;;;;;;5032551;28;20050;-53
2022/12/30 02:07:41;;;;;;;23.48;3.80;;;6.30;99.90;;;;;;5042651;28;20045;-55
2022/12/30 02:10:08;;;;;;;17.70;3.53;;;6.40;99.90;;;;;;5053111;28;20090;-54
2022/12/30 02:12:35;;;;;;;23.10;3.90;;;6.40;99.90;;;;;;5037285;28;20477;-53
2022/12/30 02:15:01;;;;;;;27.38;3.10;;;6.50;99.90;;;;;;5036062;28;20062;-55
2022/12/30 02:17:28;;;;;;;28.23;3.58;;;6.50;99.90;;;;;;5036233;28;20053;-53
2022/12/30 02:19:55;;;;;;;26.67;4.13;;;6.60;99.90;;;;;;5036064;28;20115;-52
2022/12/30 02:22:21;;;;;;;23.90;3.85;;;6.60;99.90;;;;;;5033612;28;20412;-54
2022/12/30 02:24:48;;;;;;;25.00;3.38;;;6.70;99.90;;;;;;5036128;28;20045;-53
2022/12/30 02:27:15;;;;;;;18.90;2.85;;;6.80;99.90;;;;;;5034933;28;20049;-54
2022/12/30 02:29:42;;;;;;;18.50;3.47;;;6.80;99.90;;;;;;5035715;28;20045;-52
2022/12/30 02:32:09;;;;;;;18.20;3.47;;;6.90;99.90;;;;;;5035907;28;20065;-55
2022/12/30 02:34:35;;;;;;;25.15;3.20;;;6.90;99.90;;;;;;5047341;28;20033;-49
2022/12/30 02:37:02;;;;;;;21.25;3.67;;;7.00;99.90;;;;;;5054284;28;20163;-51
2022/12/30 02:39:29;;;;;;;17.35;3.33;;;7.00;99.90;;;;;;5036103;28;20152;-56
2022/12/30 02:44:41;;;;;;;17.63;3.22;;;7.10;99.90;;;;;;5048956;28;20045;-52
2022/12/30 02:47:07;;;;;;;19.08;3.80;;;7.10;99.90;;;;;;5035241;28;20514;-49
2022/12/30 02:49:34;;;;;;;22.23;3.00;;;7.20;99.90;;;;;;5045528;28;20041;-53
2022/12/30 02:52:17;;;;;;;17.00;3.78;;;7.20;99.90;;;;;;5055627;28;20048;-50
2022/12/30 02:54:44;;;;;;;15.88;2.50;;;7.30;99.90;;;;;;5055189;28;20052;-50
2022/12/30 02:57:11;;;;;;;18.13;3.00;;;7.30;99.90;;;;;;5055229;28;20048;-51
2022/12/30 03:05:09;;;;;;;17.75;2.90;;;7.40;99.90;;;;;;5052946;28;20045;-50
2022/12/30 03:07:36;;;;;;;22.75;3.17;;;7.40;99.90;;;;;;5054859;28;20049;-51
2022/12/30 03:12:48;;;;;;;19.50;3.10;;;7.40;99.90;;;;;;5049068;28;20033;-50
2022/12/30 03:15:15;;;;;;;14.95;3.08;;;7.40;99.90;;;;;;5054760;28;20080;-51
2022/12/30 03:17:42;;;;;;;19.35;2.72;;;7.40;99.90;;;;;;5054841;28;20543;-50
2022/12/30 03:20:09;;;;;;;25.95;3.50;;;7.40;99.90;;;;;;5052032;28;20128;-50
2022/12/30 03:28:07;;;;;;;17.98;2.70;;;7.40;99.90;;;;;;5054882;28;20037;-51
2022/12/30 03:30:33;;;;;;;22.73;3.88;;;7.40;99.90;;;;;;5039355;28;20037;-51
2022/12/30 03:33:00;;;;;;;21.08;2.72;;;7.40;99.90;;;;;;5037100;28;20041;-48
2022/12/30 03:35:27;;;;;;;18.15;3.13;;;7.40;99.90;;;;;;5036820;28;20444;-49
2022/12/30 03:37:54;;;;;;;23.08;3.03;;;7.40;99.90;;;;;;5046568;28;20037;-51
2022/12/30 03:40:20;;;;;;;17.23;3.72;;;7.40;99.90;;;;;;5054144;28;20049;-51
2022/12/30 03:42:47;;;;;;;15.20;2.67;;;7.40;99.90;;;;;;5054137;28;20107;-55
2022/12/30 03:45:14;;;;;;;21.23;3.65;;;7.40;99.90;;;;;;5042176;28;20493;-52
2022/12/30 03:47:41;;;;;;;15.73;4.10;;;7.40;99.90;;;;;;5034274;28;20120;-50
2022/12/30 03:50:08;;;;;;;20.35;4.20;;;7.40;99.90;;;;;;5036876;28;20036;-52
2022/12/30 03:52:34;;;;;;;21.10;3.30;;;7.40;99.90;;;;;;5037336;28;20124;-49
2022/12/30 03:55:01;;;;;;;19.35;3.42;;;7.40;99.90;;;;;;5034332;28;20037;-51
2022/12/30 03:57:28;;;;;;;18.60;3.15;;;7.40;99.90;;;;;;5034016;28;20034;-52
2022/12/30 03:59:54;;;;;;;20.25;3.38;;;7.40;99.90;;;;;;5032878;28;20107;-53
2022/12/30 04:02:21;;;;;;;18.55;3.35;;;7.40;99.90;;;;;;5033777;28;20103;-48
2022/12/30 04:04:48;;;;;;;17.77;3.45;;;7.40;99.90;;;;;;5042979;28;20049;-53
2022/12/30 04:07:15;;;;;;;18.90;3.65;;;7.40;99.90;;;;;;5044511;28;20045;-53
2022/12/30 04:09:42;;;;;;;18.08;2.72;;;7.40;99.90;;;;;;5042624;28;20436;-52
2022/12/30 04:12:08;;;;;;;19.23;3.95;;;7.40;99.90;;;;;;5033944;28;20072;-48
2022/12/30 04:14:35;;;;;;;15.18;3.17;;;7.50;99.90;;;;;;5033527;28;20045;-49
2022/12/30 04:17:02;;;;;;;18.90;3.25;;;7.50;99.90;;;;;;5033544;28;20418;-50
2022/12/30 04:19:29;;;;;;;13.63;3.13;;;7.50;99.90;;;;;;5049062;28;20114;-48
2022/12/30 04:21:55;;;;;;;18.92;3.30;;;7.50;99.90;;;;;;5051349;28;20072;-53
2022/12/30 04:24:22;;;;;;;17.77;3.05;;;7.50;99.90;;;;;;5038103;28;20049;-48
2022/12/30 04:26:49;;;;;;;16.27;2.90;;;7.50;99.90;;;;;;5033532;28;20041;-52
2022/12/30 04:29:16;;;;;;;18.30;2.78;;;7.50;99.90;;;;;;5040582;28;20049;-51
2022/12/30 04:31:42;;;;;;;19.00;3.33;;;7.50;99.90;;;;;;5042494;28;20515;-51
2022/12/30 04:34:12;;;;;;;18.13;2.40;;;7.50;99.90;;;;;;5033237;28;20046;-49
2022/12/30 04:36:39;;;;;;;17.67;3.13;;;7.50;99.90;;;;;;5036488;28;20033;-55
2022/12/30 04:39:05;;;;;;;17.65;3.15;;;7.50;99.90;;;;;;5039942;28;20069;-53
2022/12/30 04:41:32;;;;;;;19.80;3.05;;;7.50;99.90;;;;;;5033569;28;20038;-56
2022/12/30 04:44:01;;;;;;;14.20;2.42;;;7.60;99.90;;;;;;5033469;28;20048;-54
2022/12/30 04:46:28;;;;;;;14.65;2.95;;;7.60;99.90;;;;;;5038630;28;20046;-49
2022/12/30 04:48:55;;;;;;;19.52;2.70;;;7.60;99.90;;;;;;5053295;28;20403;-54
2022/12/30 04:51:22;;;;;;;17.48;2.97;;;7.60;99.90;;;;;;5041451;28;20048;-53
2022/12/30 04:53:48;;;;;;;18.85;2.65;;;7.60;99.90;;;;;;5042251;28;20038;-53
2022/12/30 04:56:15;;;;;;;14.75;2.53;;;7.60;99.90;;;;;;5033277;28;20037;-51
2022/12/30 04:58:50;;;;;;;17.10;3.70;;;7.60;99.90;;;;;;5046937;28;20511;-50
2022/12/30 05:01:17;;;;;;;20.02;2.92;;;7.60;99.90;;;;;;5033046;28;20041;-52
2022/12/30 05:03:44;;;;;;;15.43;2.35;;;7.70;99.90;;;;;;5035968;28;20064;-53
2022/12/30 05:06:11;;;;;;;16.73;3.05;;;7.70;99.90;;;;;;5033060;28;20116;-53
2022/12/30 05:08:37;;;;;;;17.13;3.22;;;7.70;99.90;;;;;;5051627;28;20072;-51
2022/12/30 05:11:04;;;;;;;18.38;2.63;;;7.80;99.90;;;;;;5047593;28;20154;-53
2022/12/30 05:13:31;;;;;;;15.57;3.08;;;7.80;99.90;;;;;;5047108;28;20053;-53
2022/12/30 05:15:57;;;;;;;25.70;3.05;;;7.80;99.90;;;;;;5046190;28;20040;-52
2022/12/30 05:18:24;;;;;;;16.08;2.50;;;7.90;99.90;;;;;;5041971;28;20053;-53
2022/12/30 05:20:51;;;;;;;16.40;2.40;;;7.90;99.90;;;;;;5044431;28;20345;-55
2022/12/30 05:26:15;;;;;;;13.88;2.85;;;7.90;99.90;;;;;;5032906;28;20076;-51
2022/12/30 05:28:42;;;;;;;16.55;2.42;;;7.90;99.90;;;;;;5033038;28;20049;-55
2022/12/30 05:31:09;;;;;;;13.98;2.47;;;8.00;99.90;;;;;;5032335;28;20487;-53
2022/12/30 05:33:35;;;;;;;16.45;2.33;;;8.00;99.90;;;;;;5032435;28;20467;-50
2022/12/30 05:36:02;;;;;;;17.25;3.65;;;8.00;99.90;;;;;;5042592;28;20079;-49
2022/12/30 05:38:29;;;;;;;14.70;2.70;;;8.00;99.90;;;;;;5050073;28;20037;-52
2022/12/30 05:40:56;;;;;;;15.63;2.60;;;8.00;99.90;;;;;;5033492;28;20045;-52
2022/12/30 05:43:23;;;;;;;14.43;2.60;;;8.00;99.90;;;;;;5032737;28;20432;-49
2022/12/30 05:45:49;;;;;;;10.98;2.78;;;8.10;99.90;;;;;;5047332;28;20046;-52
2022/12/30 05:48:16;;;;;;;16.25;3.10;;;8.10;99.90;;;;;;5042931;28;20124;-49
2022/12/30 05:50:43;;;;;;;14.02;2.80;;;8.10;99.90;;;;;;5036287;28;20649;-52
2022/12/30 05:53:10;;;;;;;14.60;3.00;;;8.10;99.90;;;;;;5047740;28;20098;-55
2022/12/30 05:55:37;;;;;;;20.60;3.70;;;8.10;99.90;;;;;;5055189;28;20426;-50
2022/12/30 05:58:03;;;;;;;17.42;2.78;;;8.10;99.90;;;;;;5049953;28;20041;-53
2022/12/30 06:00:30;;;;;;;17.02;2.53;;;8.10;99.90;;;;;;5051518;28;20044;-53
2022/12/30 06:02:57;;;;;;;12.23;2.70;;;8.20;99.90;;;;;;5045916;28;20041;-52
2022/12/30 06:05:24;;;;;;;14.02;2.42;;;8.20;99.90;;;;;;5036399;28;20041;-51
2022/12/30 06:07:50;;;;;;;14.55;2.60;;;8.20;99.90;;;;;;5048424;28;20466;-52
2022/12/30 06:10:17;;;;;;;16.90;2.65;;;8.20;99.90;;;;;;5041814;28;20044;-51
2022/12/30 06:12:44;;;;;;;19.17;3.03;;;8.20;99.90;;;;;;5040411;28;20439;-50
2022/12/30 06:15:11;;;;;;;17.45;3.63;;;8.20;99.90;;;;;;5038918;28;20045;-54
2022/12/30 06:17:40;;;;;;;13.68;2.58;;;8.30;99.90;;;;;;5053517;28;20115;-50
2022/12/30 06:20:08;;;;;;;13.10;2.80;;;8.30;99.90;;;;;;5056291;28;20049;-51
2022/12/30 06:22:35;;;;;;;15.63;2.97;;;8.40;99.90;;;;;;5055960;28;20049;-51
2022/12/30 06:25:01;;;;;;;19.17;3.30;;;8.40;99.90;;;;;;5055906;28;20040;-52
2022/12/30 06:27:28;;;;;;;15.88;3.00;;;8.40;99.90;;;;;;5048984;28;20069;-54
2022/12/30 06:29:55;;;;;;;20.85;3.00;;;8.50;99.90;;;;;;5053828;28;20045;-51
2022/12/30 06:32:22;;;;;;;20.30;3.28;;;8.50;99.90;;;;;;5048864;28;20381;-53
2022/12/30 06:34:48;;;;;;;15.57;2.95;;;8.50;99.90;;;;;;5037695;28;20045;-52
2022/12/30 06:37:15;;;;;;;15.25;2.78;;;8.50;99.90;;;;;;5039945;28;20041;-56
2022/12/30 06:39:42;;;;;;;19.05;3.58;;;8.60;99.90;;;;;;5045833;28;20090;-53
2022/12/30 06:42:09;;;;;;;13.90;2.85;;;8.60;99.90;;;;;;5049785;28;20041;-52
2022/12/30 06:44:35;;;;;;;16.90;3.10;;;8.60;99.90;;;;;;5040088;28;20052;-56
2022/12/30 06:47:02;;;;;;;18.60;3.42;;;8.60;99.90;;;;;;5046513;28;20045;-52
2022/12/30 06:49:29;;;;;;;14.05;2.88;;;8.60;99.90;;;;;;5045364;28;20099;-54
2022/12/30 06:51:56;;;;;;;22.23;3.47;;;8.70;99.90;;;;;;5051887;28;20377;-55
2022/12/30 06:54:22;;;;;;;18.75;2.63;;;8.70;99.90;;;;;;5055303;28;20368;-53
2022/12/30 06:56:49;;;;;;;18.67;2.97;;;8.70;99.90;;;;;;5053279;28;20060;-52
2022/12/30 06:59:16;;;;;;;15.68;2.78;;;8.80;99.90;;;;;;5047058;28;20076;-52
2022/12/30 07:01:42;;;;;;;17.33;2.58;;;8.80;99.90;;;;;;5043879;28;20120;-54
2022/12/30 07:04:09;;;;;;;18.05;2.70;;;8.80;99.90;;;;;;5034882;28;20038;-54
2022/12/30 07:06:36;;;;;;;18.63;3.50;;;8.80;99.90;;;;;;5035679;28;20072;-56
2022/12/30 07:09:03;;;;;;;10.45;2.63;;;8.90;99.90;;;;;;5043641;28;20053;-53
2022/12/30 07:11:29;;;;;;;14.80;2.60;;;8.90;99.90;;;;;;5043206;28;20041;-52
2022/12/30 07:13:56;;;;;;;11.52;2.47;;;8.90;99.90;;;;;;5041986;28;20128;-54
2022/12/30 07:16:24;;;;;;;17.40;3.65;;;8.90;99.90;;;;;;5042875;28;20041;-55
2022/12/30 07:18:52;;;;;;;18.38;3.10;;;8.90;99.90;;;;;;5050142;28;20125;-55
2022/12/30 07:21:19;;;;;;;12.55;2.80;;;9.00;99.90;;;;;;5049932;28;20119;-55
2022/12/30 07:23:46;;;;;;;17.85;2.90;;;9.00;99.90;;;;;;5035181;28;20041;-53
2022/12/30 07:26:12;;;;;;;16.40;2.92;;;9.00;99.90;;;;;;5036463;28;20046;-51
2022/12/30 07:28:39;;;;;;;13.93;2.63;;;9.00;99.90;;;;;;5043060;28;20041;-52
2022/12/30 07:31:06;;;;;;;16.80;3.17;;;9.00;99.90;;;;;;5036087;28;20065;-53
2022/12/30 07:33:33;;;;;;;17.00;2.97;;;9.00;99.90;;;;;;5045049;28;20048;-52
2022/12/30 07:35:59;;;;;;;17.10;3.25;;;9.00;99.90;;;;;;5048279;28;20076;-54
2022/12/30 07:38:26;;;;;;;17.92;2.97;;;9.00;99.90;;;;;;5041597;28;20029;-47
2022/12/30 07:40:53;;;;;;;18.73;3.10;;;9.00;99.90;;;;;;5038567;28;20091;-52
2022/12/30 07:43:20;;;;;;;16.17;2.97;;;9.00;99.90;;;;;;5040011;28;20554;-54
2022/12/30 07:45:47;;;;;;;12.98;2.38;;;9.00;99.90;;;;;;5052724;28;20044;-52
2022/12/30 07:48:13;;;;;;;21.50;3.22;;;9.00;99.90;;;;;;5042581;28;20044;-55
2022/12/30 07:50:40;;;;;;;15.65;2.60;;;8.90;99.90;;;;;;5044529;28;20029;-50
2022/12/30 07:53:07;;;;;;;12.55;2.70;;;8.90;99.90;;;;;;5040638;28;20487;-50
2022/12/30 07:55:34;;;;;;;21.95;3.38;;;8.90;99.90;;;;;;5041972;28;20103;-50
2022/12/30 07:58:01;;;;;;;14.35;2.90;;;8.90;99.90;;;;;;5039626;28;20061;-54
2022/12/30 08:00:28;;;;;;;15.98;2.88;;;8.90;99.90;;;;;;5041498;28;20049;-52
2022/12/30 08:02:54;;;;;;;15.35;2.78;;;8.90;99.90;;;;;;5038304;28;20052;-54
2022/12/30 08:05:21;;;;;;;14.93;2.72;;;8.90;99.90;;;;;;5048000;28;20048;-50
2022/12/30 08:07:48;;;;;;;10.40;2.35;;;8.80;99.90;;;;;;5053766;28;20407;-53
2022/12/30 08:10:15;;;;;;;14.35;2.40;;;8.80;99.90;;;;;;5045826;28;20106;-53
2022/12/30 08:12:41;;;;;;;14.20;3.58;;;8.80;99.90;;;;;;5042986;28;20075;-54
2022/12/30 08:15:08;;;;;;;14.50;2.70;;;8.80;99.90;;;;;;5033015;28;20053;-53
2022/12/30 08:17:35;;;;;;;14.88;3.42;;;8.80;99.90;;;;;;5031768;28;20472;-51
2022/12/30 08:20:01;;;;;;;15.45;2.38;;;8.70;99.90;;;;;;5032532;28;20065;-52
2022/12/30 08:22:28;;;;;;;14.52;2.45;;;8.80;99.90;;;;;;5033847;28;20408;-55
2022/12/30 08:24:55;;;;;;;8.20;1.80;;;8.80;99.90;;;;;;5035981;28;20076;-50
2022/12/30 08:27:22;;;;;;;8.32;2.42;;;8.70;99.90;;;;;;5042553;28;20073;-51
2022/12/30 08:29:48;;;;;;;5.93;1.60;;;8.70;99.90;;;;;;5046764;28;20491;-54
2022/12/30 08:32:15;;;;;;;9.25;1.73;;;8.70;99.90;;;;;;5043305;28;20049;-53
2022/12/30 08:34:42;;;;;;;9.55;1.92;;;8.70;99.90;;;;;;5046214;28;20098;-48
2022/12/30 08:37:09;;;;;;;5.45;1.38;;;8.70;99.90;;;;;;5045755;28;20033;-52
2022/12/30 08:39:35;;;;;;;5.90;1.42;;;8.70;99.90;;;;;;5049947;28;20476;-50
2022/12/30 08:42:02;;;;;;;9.85;1.63;;;8.70;99.90;;;;;;5032690;28;20045;-55
2022/12/30 08:44:29;;;;;;;8.10;1.67;;;8.70;99.90;;;;;;5032800;28;20053;-53
2022/12/30 08:46:56;;;;;;;6.72;1.70;;;8.70;99.90;;;;;;5045461;28;20091;-52
2022/12/30 08:49:22;;;;;;;8.25;1.83;;;8.70;99.90;;;;;;5053422;28;20080;-53
2022/12/30 08:51:49;;;;;;;6.38;1.40;;;8.60;99.90;;;;;;5045831;28;20041;-49
2022/12/30 08:54:16;;;;;;;7.90;1.73;;;8.60;99.90;;;;;;5046251;28;20080;-50
2022/12/30 08:56:45;;;;;;;7.50;1.55;;;8.60;99.90;;;;;;5045028;28;20037;-52
2022/12/30 08:59:12;;;;;;;5.07;1.50;;;8.60;99.90;;;;;;5041901;28;20063;-53
2022/12/30 09:01:42;;;;;;;8.52;1.60;;;8.60;99.90;;;;;;5048821;28;20045;-53
2022/12/30 09:04:09;;;;;;;4.40;1.35;;;8.60;99.90;;;;;;5040529;28;20033;-52
2022/12/30 09:06:35;;;;;;;7.80;1.30;;;8.60;99.90;;;;;;5038235;28;20049;-53
2022/12/30 09:09:02;;;;;;;6.85;1.60;;;8.60;99.90;;;;;;5046297;28;20106;-52
2022/12/30 09:11:29;;;;;;;8.43;1.35;;;8.60;99.90;;;;;;5043496;28;20045;-54
2022/12/30 09:13:56;;;;;;;4.38;1.35;;;8.60;99.90;;;;;;5045500;28;20053;-51
2022/12/30 09:16:26;;;;;;;7.30;1.40;;;8.60;99.90;;;;;;5040320;28;20045;-53
2022/12/30 09:18:53;;;;;;;4.18;1.00;;;8.60;99.90;;;;;;5045903;28;20037;-51
2022/12/30 09:21:19;;;;;;;2.45;0.70;;;8.70;99.90;;;;;;5037385;28;20127;-52
2022/12/30 09:23:46;;;;;;;5.20;1.33;;;8.60;99.90;;;;;;5041303;28;20045;-53
2022/12/30 09:26:13;;;;;;;3.03;1.15;;;8.60;99.90;;;;;;5036877;28;20115;-53
2022/12/30 09:28:39;;;;;;;4.03;1.05;;;8.60;99.90;;;;;;5036348;28;20042;-55
2022/12/30 09:31:06;;;;;;;5.18;1.30;;;8.70;99.90;;;;;;5040684;28;20045;-52
2022/12/30 09:33:33;;;;;;;3.85;1.10;;;8.70;99.90;;;;;;5043192;28;20051;-52
2022/12/30 09:36:00;;;;;;;3.28;1.00;;;8.70;99.90;;;;;;5055282;28;20106;-54
2022/12/30 09:38:26;;;;;;;2.33;0.93;;;8.70;99.90;;;;;;5041123;28;20469;-51
2022/12/30 09:40:53;;;;;;;6.10;1.20;;;8.80;99.90;;;;;;5042385;28;20081;-51
2022/12/30 09:43:20;;;;;;;3.42;1.05;;;8.80;99.90;;;;;;5040318;28;20041;-56
2022/12/30 09:45:47;;;;;;;3.60;1.00;;;8.80;99.90;;;;;;5051965;28;20091;-51
2022/12/30 09:48:14;;;;;;;3.33;1.23;;;8.80;99.90;;;;;;5044695;28;20044;-52
2022/12/30 09:50:41;;;;;;;5.32;0.98;;;8.80;99.90;;;;;;5042342;28;20077;-54
2022/12/30 09:53:07;;;;;;;3.28;0.98;;;8.80;99.90;;;;;;5044636;28;20064;-51
2022/12/30 09:55:34;;;;;;;4.13;1.00;;;8.80;99.90;;;;;;5037064;28;20088;-54
2022/12/30 09:58:01;;;;;;;4.32;0.80;;;8.90;99.90;;;;;;5039233;28;20065;-50
2022/12/30 10:00:28;;;;;;;3.03;0.80;;;8.80;99.90;;;;;;5039403;28;20039;-56
2022/12/30 10:02:54;;;;;;;4.68;1.00;;;8.90;99.90;;;;;;5042802;28;20128;-50
2022/12/30 10:05:21;;;;;;;2.75;0.98;;;8.90;99.90;;;;;;5055262;28;20051;-52
2022/12/30 10:07:48;;;;;;;2.83;0.70;;;8.90;99.90;;;;;;5040886;28;20463;-53
2022/12/30 10:10:15;;;;;;;2.85;1.10;;;9.00;99.90;;;;;;5037691;28;20107;-56
2022/12/30 10:12:44;;;;;;;3.65;0.95;;;9.00;99.90;;;;;;5036618;28;20043;-49
2022/12/30 10:15:10;;;;;;;3.88;0.80;;;9.00;99.90;;;;;;5051648;28;20494;-55
2022/12/30 10:17:37;;;;;;;2.20;0.60;;;9.10;99.90;;;;;;5055419;28;20091;-56
2022/12/30 10:20:04;;;;;;;2.47;0.50;;;9.10;99.90;;;;;;5038248;28;20049;-53
2022/12/30 10:22:31;;;;;;;3.17;0.65;;;9.10;99.90;;;;;;5052448;28;20045;-54
2022/12/30 10:24:58;;;;;;;2.67;0.68;;;9.10;99.90;;;;;;5035936;28;20103;-54
2022/12/30 10:27:24;;;;;;;2.70;0.57;;;9.20;99.90;;;;;;5048419;28;20048;-56
2022/12/30 10:29:51;;;;;;;2.30;0.50;;;9.20;99.90;;;;;;5055110;28;20055;-53
2022/12/30 10:32:24;;;;;;;2.40;0.65;;;9.20;99.90;;;;;;5043805;28;20048;-53
2022/12/30 10:34:50;;;;;;;2.58;0.70;;;9.30;99.90;;;;;;5049157;28;20041;-48
2022/12/30 10:37:17;;;;;;;2.17;0.50;;;9.30;99.90;;;;;;5041264;28;20033;-53
2022/12/30 10:39:44;;;;;;;1.73;0.60;;;9.30;99.90;;;;;;5044070;28;20043;-54
2022/12/30 10:42:11;;;;;;;1.13;0.45;;;9.40;99.90;;;;;;5050600;28;20459;-53
2022/12/30 10:44:38;;;;;;;2.60;0.50;;;9.40;99.90;;;;;;5047573;28;20043;-54
2022/12/30 10:47:05;;;;;;;1.58;0.40;;;9.40;99.90;;;;;;5049046;28;20045;-54
2022/12/30 10:49:32;;;;;;;1.25;0.40;;;9.40;99.90;;;;;;5038830;28;20088;-51
2022/12/30 10:51:58;;;;;;;1.40;0.40;;;9.40;99.90;;;;;;5043849;28;20045;-49
2022/12/30 10:54:25;;;;;;;1.70;0.60;;;9.50;99.90;;;;;;5036933;28;20469;-52
2022/12/30 10:56:52;;;;;;;1.45;0.40;;;9.50;99.90;;;;;;5041162;28;20110;-52
2022/12/30 10:59:19;;;;;;;1.10;0.30;;;9.50;99.90;;;;;;5044867;28;20481;-53
2022/12/30 11:01:45;;;;;;;1.38;0.30;;;9.60;99.90;;;;;;5038569;28;20076;-55
2022/12/30 11:04:12;;;;;;;1.50;0.40;;;9.60;99.90;;;;;;5036115;28;20049;-51
2022/12/30 11:06:39;;;;;;;1.35;0.43;;;9.60;99.90;;;;;;5036664;28;20045;-50
2022/12/30 11:09:06;;;;;;;0.95;0.30;;;9.70;99.90;;;;;;5053944;28;20040;-56
2022/12/30 11:14:50;;;;;;;1.48;0.40;;;9.80;99.90;;;;;;5038650;28;20412;-52
2022/12/30 11:17:17;;;;;;;1.65;0.50;;;9.90;99.90;;;;;;5053890;28;20048;-52
2022/12/30 11:19:44;;;;;;;1.50;0.50;;;9.90;99.90;;;;;;5048947;28;20065;-53
2022/12/30 11:22:11;;;;;;;2.45;0.52;;;10.00;99.90;;;;;;5053511;28;20102;-51
2022/12/30 11:24:37;;;;;;;1.73;0.43;;;10.10;99.90;;;;;;5043223;28;20504;-48
2022/12/30 11:27:04;;;;;;;3.55;0.50;;;10.10;99.90;;;;;;5037186;28;20034;-49
2022/12/30 11:29:31;;;;;;;1.95;0.40;;;10.20;99.90;;;;;;5046857;28;20041;-49
2022/12/30 11:31:57;;;;;;;2.33;0.50;;;10.30;99.90;;;;;;5040951;28;20030;-51
2022/12/30 11:34:24;;;;;;;1.38;0.40;;;10.30;99.90;;;;;;5041948;28;20488;-50
2022/12/30 11:36:51;;;;;;;2.15;0.50;;;10.40;99.90;;;;;;5050756;28;20430;-50
2022/12/30 11:39:18;;;;;;;3.63;0.70;;;10.50;99.90;;;;;;5034774;28;20112;-54
2022/12/30 11:41:45;;;;;;;3.53;0.88;;;10.60;99.90;;;;;;5034885;28;20069;-51
2022/12/30 11:44:12;;;;;;;3.35;0.70;;;10.70;99.90;;;;;;5036237;28;20524;-49
2022/12/30 11:46:39;;;;;;;3.22;0.65;;;10.80;99.90;;;;;;5041119;28;20072;-52
2022/12/30 11:49:05;;;;;;;1.67;0.43;;;10.90;99.90;;;;;;5051746;28;20053;-53
2022/12/30 11:51:32;;;;;;;1.92;0.50;;;11.00;99.90;;;;;;5040009;28;20469;-52
2022/12/30 11:53:59;;;;;;;3.35;0.70;;;11.00;99.90;;;;;;5037963;28;20041;-52
2022/12/30 11:56:26;;;;;;;2.47;0.60;;;11.20;99.90;;;;;;5039441;28;20111;-51
2022/12/30 11:58:52;;;;;;;2.95;0.60;;;11.20;99.90;;;;;;5034585;28;20041;-49
2022/12/30 12:01:19;;;;;;;5.28;1.48;;;11.30;99.90;;;;;;5046966;28;20075;-55
2022/12/30 12:03:47;;;;;;;2.75;0.88;;;11.40;99.90;;;;;;5035380;28;20041;-51
2022/12/30 12:06:13;;;;;;;6.80;1.10;;;11.40;99.90;;;;;;5039331;28;20045;-54
2022/12/30 12:08:40;;;;;;;4.00;1.00;;;11.40;99.90;;;;;;5043456;28;20484;-50
2022/12/30 12:11:07;;;;;;;3.85;0.70;;;11.50;99.90;;;;;;5031734;28;20087;-50
2022/12/30 12:13:34;;;;;;;5.85;0.95;;;11.60;99.90;;;;;;5044515;28;20496;-56
2022/12/30 12:16:00;;;;;;;3.45;0.90;;;11.60;99.90;;;;;;5034393;28;20041;-49
2022/12/30 12:18:27;;;;;;;3.75;0.95;;;11.60;99.90;;;;;;5038824;28;20040;-51
2022/12/30 12:20:54;;;;;;;4.15;0.90;;;11.70;99.90;;;;;;5041359;28;20447;-49
2022/12/30 12:23:21;;;;;;;4.05;0.70;;;11.70;99.90;;;;;;5042061;28;20064;-50
2022/12/30 12:25:48;;;;;;;4.03;1.27;;;11.80;99.90;;;;;;5055414;28;20504;-50
2022/12/30 12:28:14;;;;;;;5.00;1.20;;;11.90;99.90;;;;;;5045819;28;20094;-51
2022/12/30 12:30:41;;;;;;;5.30;1.10;;;12.00;99.90;;;;;;5046811;28;20483;-51
2022/12/30 12:33:08;;;;;;;3.42;0.57;;;12.00;99.90;;;;;;5043731;28;20133;-52
2022/12/30 12:35:35;;;;;;;3.08;0.90;;;12.10;99.90;;;;;;5046181;28;20421;-54
2022/12/30 12:38:01;;;;;;;5.65;0.70;;;12.20;99.90;;;;;;5053197;28;20037;-49
2022/12/30 12:40:28;;;;;;;3.47;0.98;;;12.20;99.90;;;;;;5043769;28;20064;-52
2022/12/30 12:42:55;;;;;;;2.88;0.85;;;12.20;99.90;;;;;;5041895;28;20043;-52
2022/12/30 12:45:22;;;;;;;4.18;1.10;;;12.20;99.90;;;;;;5044608;28;20140;-50
2022/12/30 12:47:48;;;;;;;5.25;1.50;;;12.20;99.90;;;;;;5033228;28;20042;-49
2022/12/30 12:50:15;;;;;;;5.22;1.30;;;12.20;99.90;;;;;;5043028;28;20480;-47
2022/12/30 12:52:42;;;;;;;3.75;1.05;;;12.30;99.90;;;;;;5050836;28;20044;-52
2022/12/30 12:55:09;;;;;;;3.10;0.80;;;12.30;99.90;;;;;;5038865;28;20493;-51
2022/12/30 12:57:36;;;;;;;3.50;1.13;;;12.30;99.90;;;;;;5040054;28;20041;-49
2022/12/30 13:00:07;;;;;;;3.53;1.50;;;12.30;99.90;;;;;;5047332;28;20041;-48
2022/12/30 13:02:33;;;;;;;3.53;0.93;;;12.30;99.90;;;;;;5052116;28;20045;-52
2022/12/30 13:05:17;;;;;;;3.05;1.13;;;12.30;99.90;;;;;;5049330;28;20120;-53
2022/12/30 13:07:44;;;;;;;3.35;0.80;;;12.30;99.90;;;;;;5044009;28;20060;-50
2022/12/30 13:10:30;;;;;;;3.28;1.00;;;12.30;99.90;;;;;;5035156;28;20680;-53
2022/12/30 13:12:59;;;;;;;3.50;1.10;;;12.40;99.90;;;;;;5046459;28;20060;-54
2022/12/30 13:15:26;;;;;;;2.72;0.80;;;12.40;99.90;;;;;;5036533;28;20540;-52
2022/12/30 13:17:53;;;;;;;4.32;1.10;;;12.40;99.90;;;;;;5046196;28;20037;-51
2022/12/30 13:20:19;;;;;;;3.10;1.45;;;12.30;99.90;;;;;;5052321;28;20045;-54
2022/12/30 13:22:47;;;;;;;3.88;1.08;;;12.40;99.90;;;;;;5047988;28;20060;-55
2022/12/30 13:25:13;;;;;;;5.07;1.10;;;12.40;99.90;;;;;;5050711;28;20033;-53
2022/12/30 13:27:47;;;;;;;7.18;1.98;;;12.30;99.90;;;;;;5051372;28;20053;-51
2022/12/30 13:30:14;;;;;;;5.75;1.52;;;12.30;99.90;;;;;;5049202;28;20045;-54
2022/12/30 13:32:41;;;;;;;8.15;1.88;;;12.40;99.90;;;;;;5050952;28;20041;-50
2022/12/30 13:35:08;;;;;;;8.25;1.60;;;12.40;99.90;;;;;;5047309;28;20119;-55
2022/12/30 13:37:35;;;;;;;6.00;1.70;;;12.30;99.90;;;;;;5040653;28;20068;-48
2022/12/30 13:40:01;;;;;;;6.88;2.10;;;12.30;99.90;;;;;;5052261;28;20033;-52